createdAt,value
2019-04-20T00:02:20.345Z,15.40
2019-04-20T00:04:51.412Z,15.30
2019-04-20T00:07:25.715Z,15.30
2019-04-20T00:10:04.519Z,15.30
2019-04-20T00:12:39.450Z,15.20
2019-04-20T00:15:02.987Z,15.10
2019-04-20T00:17:40.205Z,15.10
2019-04-20T00:20:13.354Z,15.00
2019-04-20T00:23:04.121Z,15.00
2019-04-20T00:26:12.415Z,14.90
2019-04-20T00:28:51.270Z,14.80
2019-04-20T00:31:23.534Z,14.80
2019-04-20T00:33:55.010Z,14.70
2019-04-20T00:36:13.846Z,14.60
2019-04-20T00:38:50.902Z,14.60
2019-04-20T00:41:20.391Z,14.50
2019-04-20T00:43:53.280Z,14.50
2019-04-20T00:46:32.909Z,14.40
2019-04-20T00:49:15.043Z,14.40
2019-04-20T00:51:51.548Z,14.30
2019-04-20T00:54:05.814Z,14.20
2019-04-20T00:56:37.180Z,14.20
2019-04-20T00:59:20.542Z,14.10
2019-04-20T01:02:00.181Z,14.10
2019-04-20T01:04:39.223Z,14.00
2019-04-20T01:07:27.355Z,14.00
2019-04-20T01:09:58.311Z,13.90
2019-04-20T01:12:33.778Z,13.80
2019-04-20T01:15:06.319Z,13.80
2019-04-20T01:17:37.784Z,13.70
2019-04-20T01:20:10.633Z,13.60
2019-04-20T01:22:50.505Z,13.60
2019-04-20T01:25:22.073Z,13.60
2019-04-20T01:28:10.278Z,13.50
2019-04-20T01:30:30.169Z,13.50
2019-04-20T01:33:12.487Z,13.50
2019-04-20T01:35:44.087Z,13.50
2019-04-20T01:38:22.296Z,13.40
2019-04-20T01:40:36.134Z,13.40
2019-04-20T01:43:08.001Z,13.40
2019-04-20T01:45:42.414Z,13.40
2019-04-20T01:48:15.117Z,13.30
2019-04-20T01:50:57.404Z,13.40
2019-04-20T01:53:44.091Z,13.30
2019-04-20T01:56:15.501Z,13.30
2019-04-20T01:59:10.592Z,13.30
2019-04-20T02:01:39.638Z,13.30
2019-04-20T02:04:22.439Z,13.30
2019-04-20T02:06:53.282Z,13.20
2019-04-20T02:09:26.051Z,13.20
2019-04-20T02:11:55.711Z,13.20
2019-04-20T02:14:37.010Z,13.20
2019-04-20T02:17:12.950Z,13.20
2019-04-20T02:19:49.207Z,13.10
2019-04-20T02:22:23.153Z,13.10
2019-04-20T02:24:40.610Z,13.10
2019-04-20T02:27:12.632Z,13.10
2019-04-20T02:30:15.810Z,13.00
2019-04-20T02:33:03.656Z,13.00
2019-04-20T02:35:34.389Z,13.00
2019-04-20T02:38:26.713Z,13.00
2019-04-20T02:40:51.042Z,12.90
2019-04-20T02:43:25.375Z,12.90
2019-04-20T02:45:50.863Z,12.90
2019-04-20T02:48:25.935Z,12.80
2019-04-20T02:50:58.752Z,12.80
2019-04-20T02:53:41.570Z,12.80
2019-04-20T02:58:43.043Z,12.70
2019-04-20T03:01:30.699Z,12.70
2019-04-20T03:03:51.085Z,12.70
2019-04-20T03:06:30.272Z,12.70
2019-04-20T03:09:17.236Z,12.70
2019-04-20T03:11:59.354Z,12.60
2019-04-20T03:16:45.777Z,12.60
2019-04-20T03:19:16.099Z,12.50
2019-04-20T03:21:59.847Z,12.50
2019-04-20T03:24:33.750Z,12.50
2019-04-20T03:26:59.884Z,12.40
2019-04-20T03:29:54.981Z,12.40
2019-04-20T03:33:00.242Z,12.40
2019-04-20T03:37:44.570Z,12.30
2019-04-20T03:40:06.876Z,12.30
2019-04-20T03:42:26.722Z,12.20
2019-04-20T03:45:04.086Z,12.20
2019-04-20T03:47:43.677Z,12.20
2019-04-20T03:50:31.967Z,12.10
2019-04-20T03:53:02.792Z,12.10
2019-04-20T03:55:49.198Z,12.10
2019-04-20T03:58:45.629Z,12.00
2019-04-20T04:01:43.152Z,12.00
2019-04-20T04:04:11.656Z,12.00
2019-04-20T04:06:33.262Z,11.90
2019-04-20T04:09:10.291Z,11.90
2019-04-20T04:11:46.113Z,11.90
2019-04-20T04:14:05.014Z,11.80
2019-04-20T04:16:42.910Z,11.80
2019-04-20T04:19:19.702Z,11.80
2019-04-20T04:21:58.283Z,11.80
2019-04-20T04:24:26.131Z,11.80
2019-04-20T04:27:03.644Z,11.70
2019-04-20T04:29:44.192Z,11.70
2019-04-20T04:32:23.824Z,11.70
2019-04-20T04:34:48.642Z,11.60
2019-04-20T04:37:28.958Z,11.60
2019-04-20T04:40:01.076Z,11.60
2019-04-20T04:42:28.119Z,11.50
2019-04-20T04:44:50.509Z,11.50
2019-04-20T04:47:16.855Z,11.50
2019-04-20T04:49:59.204Z,11.50
2019-04-20T04:52:29.343Z,11.40
2019-04-20T04:55:07.712Z,11.40
2019-04-20T04:57:30.494Z,11.40
2019-04-20T05:00:01.988Z,11.40
2019-04-20T05:02:52.754Z,11.40
2019-04-20T05:05:54.606Z,11.40
2019-04-20T05:08:21.289Z,11.50
2019-04-20T05:10:45.671Z,11.50
2019-04-20T05:13:17.764Z,11.50
2019-04-20T05:16:03.582Z,11.50
2019-04-20T05:18:44.847Z,11.50
2019-04-20T05:21:25.497Z,11.50
2019-04-20T05:24:00.984Z,11.60
2019-04-20T05:26:44.798Z,11.60
2019-04-20T05:29:06.436Z,11.70
2019-04-20T05:31:36.773Z,11.80
2019-04-20T05:34:25.457Z,11.90
2019-04-20T05:36:56.783Z,11.90
2019-04-20T05:39:32.993Z,12.00
2019-04-20T05:42:03.276Z,12.10
2019-04-20T05:44:42.737Z,12.20
2019-04-20T05:47:15.815Z,12.30
2019-04-20T05:49:40.342Z,12.30
2019-04-20T05:52:31.542Z,12.40
2019-04-20T05:54:51.405Z,12.50
2019-04-20T06:00:05.531Z,12.70
2019-04-20T06:02:32.123Z,12.80
2019-04-20T06:05:08.686Z,12.80
2019-04-20T06:07:36.545Z,12.90
2019-04-20T06:10:11.439Z,13.10
2019-04-20T06:12:46.076Z,13.10
2019-04-20T06:15:46.361Z,13.20
2019-04-20T06:18:28.869Z,13.30
2019-04-20T06:21:16.229Z,13.40
2019-04-20T06:23:53.099Z,13.50
2019-04-20T06:28:51.965Z,13.80
2019-04-20T06:31:29.993Z,13.90
2019-04-20T06:34:27.722Z,13.90
2019-04-20T06:36:49.936Z,14.10
2019-04-20T06:42:13.987Z,14.30
2019-04-20T06:44:52.377Z,14.40
2019-04-20T06:47:16.207Z,14.50
2019-04-20T06:49:38.105Z,14.70
2019-04-20T06:52:27.314Z,14.80
2019-04-20T06:55:11.195Z,14.90
2019-04-20T06:57:52.860Z,15.10
2019-04-20T07:00:18.051Z,15.20
2019-04-20T07:02:57.829Z,15.40
2019-04-20T07:05:31.799Z,15.50
2019-04-20T07:08:16.696Z,15.70
2019-04-20T07:10:49.482Z,15.80
2019-04-20T07:13:06.276Z,16.00
2019-04-20T07:15:57.250Z,16.20
2019-04-20T07:19:01.306Z,16.40
2019-04-20T07:22:02.269Z,16.60
2019-04-20T07:24:25.538Z,16.80
2019-04-20T07:26:59.184Z,17.00
2019-04-20T07:29:36.933Z,17.20
2019-04-20T07:31:57.688Z,17.40
2019-04-20T07:34:33.706Z,17.50
2019-04-20T07:40:06.012Z,18.00
2019-04-20T07:42:52.652Z,18.30
2019-04-20T07:45:07.463Z,18.70
2019-04-20T07:50:07.708Z,19.80
2019-04-20T07:52:38.702Z,20.50
2019-04-20T07:55:33.569Z,21.30
2019-04-20T07:57:47.159Z,22.10
2019-04-20T08:00:38.592Z,22.90
2019-04-20T08:03:25.461Z,23.70
2019-04-20T08:05:48.546Z,24.50
2019-04-20T08:08:30.730Z,25.40
2019-04-20T08:11:06.231Z,26.20
2019-04-20T08:16:20.314Z,27.60
2019-04-20T08:21:25.578Z,28.90
2019-04-20T08:23:49.006Z,29.40
2019-04-20T08:26:11.006Z,29.90
2019-04-20T08:28:53.310Z,30.30
2019-04-20T08:32:21.378Z,30.70
2019-04-20T08:35:05.239Z,31.20
2019-04-20T08:37:31.086Z,31.90
2019-04-20T08:40:13.148Z,32.40
2019-04-20T08:42:52.628Z,33.00
2019-04-20T08:45:31.575Z,33.40
2019-04-20T08:48:03.179Z,33.90
2019-04-20T08:50:36.278Z,34.40
2019-04-20T08:53:17.359Z,34.90
2019-04-20T08:55:40.210Z,35.40
2019-04-20T08:57:54.274Z,35.80
2019-04-20T09:00:33.084Z,36.00
2019-04-20T09:03:05.740Z,36.20
2019-04-20T09:05:42.460Z,36.50
2019-04-20T09:08:14.603Z,36.70
2019-04-20T09:10:55.300Z,37.00
2019-04-20T09:13:21.131Z,37.20
2019-04-20T09:15:57.906Z,37.30
2019-04-20T09:18:44.239Z,37.30
2019-04-20T09:21:19.141Z,37.20
2019-04-20T09:23:58.952Z,37.00
2019-04-20T09:26:32.796Z,36.80
2019-04-20T09:29:04.139Z,36.70
2019-04-20T09:32:08.168Z,36.40
2019-04-20T09:34:42.433Z,36.00
2019-04-20T09:37:29.599Z,35.60
2019-04-20T09:40:30.955Z,35.20
2019-04-20T09:43:08.681Z,34.80
2019-04-20T09:45:48.039Z,34.30
2019-04-20T09:48:27.364Z,33.80
2019-04-20T09:51:11.368Z,33.30
2019-04-20T09:53:40.582Z,32.90
2019-04-20T09:56:15.799Z,32.40
2019-04-20T09:58:59.368Z,31.90
2019-04-20T10:01:18.140Z,31.50
2019-04-20T10:03:42.929Z,31.10
2019-04-20T10:06:17.995Z,30.70
2019-04-20T10:08:54.390Z,30.40
2019-04-20T10:11:23.634Z,30.00
2019-04-20T10:13:56.475Z,29.80
2019-04-20T10:16:29.691Z,29.50
2019-04-20T10:19:01.133Z,29.30
2019-04-20T10:21:33.904Z,29.00
2019-04-20T10:24:06.322Z,28.80
2019-04-20T10:26:38.721Z,28.70
2019-04-20T10:29:10.566Z,28.60
2019-04-20T10:31:48.695Z,28.40
2019-04-20T10:34:28.520Z,28.30
2019-04-20T10:37:13.402Z,28.10
2019-04-20T10:39:46.775Z,28.00
2019-04-20T10:42:18.448Z,27.90
2019-04-20T10:44:52.229Z,27.90
2019-04-20T10:47:23.203Z,27.80
2019-04-20T10:49:55.342Z,27.70
2019-04-20T10:52:29.797Z,27.70
2019-04-20T10:55:02.776Z,27.80
2019-04-20T10:57:35.415Z,27.80
2019-04-20T11:00:07.956Z,27.70
2019-04-20T11:02:43.940Z,27.60
2019-04-20T11:05:14.756Z,27.70
2019-04-20T11:07:46.382Z,27.70
2019-04-20T11:10:22.766Z,27.70
2019-04-20T11:12:52.439Z,27.70
2019-04-20T11:15:24.179Z,27.70
2019-04-20T11:17:55.597Z,27.80
2019-04-20T11:20:27.583Z,27.70
2019-04-20T11:23:00.236Z,27.70
2019-04-20T11:25:32.435Z,27.70
2019-04-20T11:28:04.099Z,27.70
2019-04-20T11:30:36.217Z,27.90
2019-04-20T11:33:07.663Z,28.10
2019-04-20T11:35:41.630Z,28.20
2019-04-20T11:38:14.269Z,28.20
2019-04-20T11:40:46.887Z,28.20
2019-04-20T11:43:19.814Z,28.10
2019-04-20T11:45:51.530Z,28.10
2019-04-20T11:48:23.354Z,28.00
2019-04-20T11:50:55.819Z,28.00
2019-04-20T11:53:28.584Z,28.10
2019-04-20T11:56:00.489Z,28.40
2019-04-20T11:58:33.181Z,28.70
2019-04-20T12:01:22.535Z,29.00
2019-04-20T12:04:01.961Z,29.20
2019-04-20T12:06:26.556Z,29.50
2019-04-20T12:08:59.040Z,29.70
2019-04-20T12:11:40.412Z,29.90
2019-04-20T12:14:04.731Z,30.00
2019-04-20T12:16:37.519Z,30.20
2019-04-20T12:19:10.562Z,30.30
2019-04-20T12:21:42.304Z,30.40
2019-04-20T12:24:14.286Z,30.40
2019-04-20T12:26:46.885Z,30.50
2019-04-20T12:29:19.546Z,30.70
2019-04-20T12:31:56.311Z,30.90
2019-04-20T12:34:24.587Z,31.30
2019-04-20T12:36:58.299Z,31.50
2019-04-20T12:39:31.223Z,31.60
2019-04-20T12:42:07.292Z,31.60
2019-04-20T12:44:35.901Z,31.60
2019-04-20T12:47:07.777Z,31.60
2019-04-20T12:49:39.208Z,31.70
2019-04-20T12:52:10.653Z,31.70
2019-04-20T12:54:44.517Z,31.80
2019-04-20T12:57:16.562Z,31.80
2019-04-20T12:59:49.547Z,32.00
2019-04-20T13:02:21.330Z,32.30
2019-04-20T13:10:43.206Z,33.30
2019-04-20T13:13:34.545Z,33.60
2019-04-20T13:16:14.378Z,33.90
2019-04-20T13:18:48.721Z,34.40
2019-04-20T13:21:21.008Z,34.90
2019-04-20T13:23:55.265Z,35.70
2019-04-20T13:26:28.845Z,36.40
2019-04-20T13:29:00.995Z,37.20
2019-04-20T13:31:33.754Z,37.90
2019-04-20T13:34:07.570Z,38.80
2019-04-20T13:36:40.046Z,39.50
2019-04-20T13:39:12.188Z,40.20
2019-04-20T13:41:57.035Z,40.90
2019-04-20T13:44:17.962Z,41.60
2019-04-20T13:46:51.157Z,42.10
2019-04-20T13:49:24.897Z,42.30
2019-04-20T13:51:57.096Z,42.70
2019-04-20T13:54:29.591Z,43.00
2019-04-20T13:57:03.654Z,43.30
2019-04-20T13:59:46.129Z,43.70
2019-04-20T14:02:28.856Z,44.10
2019-04-20T14:05:02.737Z,44.40
2019-04-20T14:07:35.601Z,44.50
2019-04-20T14:10:07.573Z,44.60
2019-04-20T14:12:50.749Z,44.80
2019-04-20T14:15:13.244Z,44.90
2019-04-20T14:17:44.804Z,45.10
2019-04-20T14:20:19.114Z,45.20
2019-04-20T14:22:49.448Z,45.40
2019-04-20T14:25:20.897Z,45.40
2019-04-20T14:27:52.927Z,45.50
2019-04-20T14:30:24.786Z,45.60
2019-04-20T14:32:56.826Z,45.60
2019-04-20T14:35:29.204Z,45.70
2019-04-20T14:38:01.686Z,45.80
2019-04-20T14:40:34.439Z,45.80
2019-04-20T14:43:06.824Z,46.00
2019-04-20T14:45:38.575Z,46.00
2019-04-20T14:48:11.988Z,46.00
2019-04-20T14:50:43.589Z,45.90
2019-04-20T14:53:15.724Z,45.60
2019-04-20T14:55:47.299Z,45.20
2019-04-20T14:58:41.398Z,44.70
2019-04-20T15:01:28.195Z,44.30
2019-04-20T15:04:05.814Z,43.70
2019-04-20T15:06:36.226Z,43.20
2019-04-20T15:09:08.736Z,42.70
2019-04-20T15:11:42.977Z,42.20
2019-04-20T15:14:14.554Z,41.30
2019-04-20T15:16:46.761Z,40.10
2019-04-20T15:19:45.368Z,38.90
2019-04-20T15:22:35.901Z,37.60
2019-04-20T15:25:07.743Z,36.30
2019-04-20T15:27:42.291Z,35.10
2019-04-20T15:30:14.127Z,34.20
2019-04-20T15:32:47.041Z,33.30
2019-04-20T15:35:19.735Z,32.60
2019-04-20T15:37:52.967Z,32.00
2019-04-20T15:40:24.888Z,31.40
2019-04-20T15:43:04.325Z,30.80
2019-04-20T15:45:31.468Z,30.40
2019-04-20T18:29:26.748Z,19.10
2019-04-20T18:32:03.018Z,18.40
2019-04-20T18:34:54.162Z,18.60
2019-04-20T18:39:43.800Z,19.50
2019-04-20T18:42:18.422Z,19.90
2019-04-20T18:45:04.202Z,20.30
2019-04-20T18:47:34.724Z,20.70
2019-04-20T18:49:59.959Z,21.00
2019-04-20T18:52:24.005Z,21.30
2019-04-20T18:54:55.817Z,21.60
2019-04-20T18:57:31.138Z,21.90
2019-04-20T19:00:02.919Z,22.00
2019-04-20T19:02:41.191Z,22.20
2019-04-20T19:05:11.566Z,22.30
2019-04-20T19:07:53.724Z,22.40
2019-04-20T19:10:27.166Z,22.60
2019-04-20T19:13:01.575Z,22.60
2019-04-20T19:16:11.652Z,22.70
2019-04-20T19:19:03.957Z,22.80
2019-04-20T19:21:25.347Z,22.80
2019-04-20T19:24:06.842Z,22.90
2019-04-20T19:26:32.091Z,22.90
2019-04-20T19:29:15.930Z,22.90
2019-04-20T19:31:49.771Z,22.90
2019-04-20T19:34:33.127Z,22.90
2019-04-20T19:37:05.042Z,22.90
2019-04-20T19:39:43.579Z,22.90
2019-04-20T19:42:16.122Z,22.90
2019-04-20T19:44:52.080Z,22.90
2019-04-20T19:47:28.452Z,22.90
2019-04-20T19:49:56.437Z,22.80
2019-04-20T19:52:36.695Z,22.80
2019-04-20T19:55:06.745Z,22.80
2019-04-20T19:57:41.190Z,22.80
2019-04-20T19:59:56.649Z,22.70
2019-04-20T20:02:29.841Z,22.70
2019-04-20T20:05:06.816Z,22.70
2019-04-20T20:07:41.624Z,22.70
2019-04-20T20:10:11.022Z,22.70
2019-04-20T20:12:54.690Z,22.60
2019-04-20T20:15:26.415Z,22.60
2019-04-20T20:18:16.751Z,22.50
2019-04-20T20:20:47.271Z,22.50
2019-04-20T20:23:01.866Z,22.50
2019-04-20T20:25:38.493Z,22.40
2019-04-20T20:28:19.239Z,22.40
2019-04-20T20:30:53.698Z,22.30
2019-04-20T20:33:30.655Z,22.30
2019-04-20T20:35:58.314Z,22.30
2019-04-20T20:38:28.028Z,22.20
2019-04-20T20:41:05.635Z,22.20
2019-04-20T20:43:42.406Z,22.10
2019-04-20T20:46:15.304Z,22.10
2019-04-20T20:49:00.582Z,22.10
2019-04-20T20:51:34.704Z,22.10
2019-04-20T20:53:51.290Z,22.00
2019-04-20T20:56:22.608Z,22.00
2019-04-20T20:58:59.283Z,22.00
2019-04-20T21:01:26.010Z,21.90
2019-04-20T21:03:56.590Z,21.90
2019-04-20T21:06:32.868Z,21.90
2019-04-20T21:09:05.765Z,21.80
2019-04-20T21:11:40.083Z,21.80
2019-04-20T21:14:14.416Z,21.80
2019-04-20T21:16:52.227Z,21.70
2019-04-20T21:19:34.890Z,21.70
2019-04-20T21:21:59.870Z,21.70
2019-04-20T21:24:31.826Z,21.60
2019-04-20T21:27:10.614Z,21.60
2019-04-20T21:29:44.365Z,21.60
2019-04-20T21:32:14.686Z,21.50
2019-04-20T21:34:53.337Z,21.40
2019-04-20T21:37:20.075Z,21.40
2019-04-20T21:39:56.103Z,21.30
2019-04-20T21:42:28.164Z,21.30
2019-04-20T21:45:06.988Z,21.20
2019-04-20T21:47:36.146Z,21.10
2019-04-20T21:50:26.712Z,21.10
2019-04-20T21:52:45.073Z,21.00
2019-04-20T21:55:14.116Z,21.00
2019-04-20T21:57:51.684Z,20.90
2019-04-20T22:00:42.261Z,20.90
2019-04-20T22:03:14.711Z,20.80
2019-04-20T22:05:46.560Z,20.70
2019-04-20T22:08:19.567Z,20.70
2019-04-20T22:10:53.382Z,20.60
2019-04-20T22:13:31.144Z,20.60
2019-04-20T22:16:03.523Z,20.60
2019-04-20T22:18:45.659Z,20.60
2019-04-20T22:21:16.689Z,20.50
2019-04-20T22:23:54.928Z,20.50
2019-04-20T22:26:24.646Z,20.50
2019-04-20T22:28:44.843Z,20.40
2019-04-20T22:31:16.234Z,20.40
2019-04-20T22:33:48.937Z,20.40
2019-04-20T22:36:27.394Z,20.40
2019-04-20T22:39:13.806Z,20.30
2019-04-20T22:41:58.659Z,20.30
2019-04-20T22:44:28.299Z,20.30
2019-04-20T22:46:58.629Z,20.20
2019-04-20T22:49:45.538Z,20.20
2019-04-20T22:52:18.529Z,20.20
2019-04-20T22:54:52.158Z,20.10
2019-04-20T22:57:27.731Z,20.10
2019-04-20T22:59:50.558Z,20.00
2019-04-20T23:02:16.517Z,20.00
2019-04-20T23:04:48.980Z,19.90
2019-04-20T23:07:20.950Z,19.90
2019-04-20T23:09:54.983Z,19.80
2019-04-20T23:12:27.580Z,19.80
2019-04-20T23:14:58.753Z,19.80
2019-04-20T23:17:37.247Z,19.70
2019-04-20T23:20:12.592Z,19.70
2019-04-20T23:22:40.868Z,19.60
2019-04-20T23:25:11.174Z,19.60
2019-04-20T23:27:43.838Z,19.60
2019-04-20T23:30:23.544Z,19.50
2019-04-20T23:32:49.779Z,19.40
2019-04-20T23:35:24.577Z,19.40
2019-04-20T23:38:01.227Z,19.40
2019-04-20T23:40:27.802Z,19.30
2019-04-20T23:43:15.342Z,19.30
2019-04-20T23:45:59.172Z,19.30
2019-04-20T23:48:40.946Z,19.20
2019-04-20T23:51:35.182Z,19.20
2019-04-20T23:53:53.894Z,19.10
2019-04-20T23:56:17.423Z,19.10
2019-04-20T23:58:52.947Z,19.10
